Wolf Creek, OR (97497)

1:44 PM PDT on September 29, 2016 (GMT -0700)
Last straw near Glendale HS | | Change Station

Elev 1434 ft 42.74 °N, 123.41 °W | Updated 4 minutes ago

Clear
Clear
74.1 °F
Feels Like 77 °F
N
2.0
Wind Variable Wind from North
Gusts 3.0 mph

Today
High -- | Low -- °F
--% Chance of Precip.
Yesterday
High -- | Low -- °F
Precip. -- in
Pressure 29.98 in
Visibility 10.0 miles
Clouds Clear
Heat Index 77 °F
Dew Point 50 °F
Humidity 42%
Rainfall 0.00 in
Snow Depth Not available.
7:09 AM 6:57 PM
Waning Crescent, 1% visible
METAR KMFR 291953Z VRB04KT 10SM CLR 23/07 A3000 RMK AO2 SLP152 T02330072
Pressure 29.98 in
Visibility 10.0 miles
Clouds Clear
Heat Index 77 °F
Dew Point 50 °F
Humidity 42%
Rainfall 0.00 in
Snow Depth Not available.
7:09 AM 6:57 PM
Waning Crescent, 1% visible
METAR KMFR 291953Z VRB04KT 10SM CLR 23/07 A3000 RMK AO2 SLP152 T02330072

10-Day Weather Forecast

Almanac

Astronomy

Sep. 29, 2016 Rise Set
Actual Time
Civil Twilight
Nautical Twilight
Astronomical Twilight
Moon
Length of Visible Light
Length of Day
Tomorrow will be .
, % of the Moon is Illuminated

Today's Extremes

State Highs State Lows

Community

WunderPhotos

Upload Photos

1,942,564 photos uploaded!

WunderBlog® & News

Nearby

Air Quality

  Air Quality AQ Index Pollutant
Not available.

Snow Depth

Station Depth Elevation

Earthquake Activity

City Distance Mag. Time & Date
Minimum magnitude displayed is 2.5.

Coastal Water Temperatures

Place Temperature

Stations

Nearby Weather Stations

Station Location Temp. Windchill Dew Point Humidity Wind Precip. Elev Updated Type
                   

Watches & Warnings

There are currently no watches in effect.